TimeEDT,TemperatureF,Dew PointF,Humidity,Sea Level PressureIn,VisibilityMPH,Wind Direction,Wind SpeedMPH,Gust SpeedMPH,PrecipitationIn,Events,Conditions,WindDirDegrees,DateUTC
12:35 AM,31.1,21.9,69,30.02,10.0,Calm,Calm,-,N/A,,Clear,0,2013-03-23 04:35:00
12:55 AM,29.5,22.5,75,30.02,10.0,Calm,Calm,-,N/A,,Clear,0,2013-03-23 04:55:00
1:15 AM,28.9,22.8,78,30.02,10.0,Calm,Calm,-,N/A,,Scattered Clouds,0,2013-03-23 05:15:00
1:35 AM,29.8,22.5,74,30.02,10.0,Calm,Calm,-,N/A,,Mostly Cloudy,0,2013-03-23 05:35:00
1:55 AM,29.3,22.8,77,30.02,10.0,Calm,Calm,-,N/A,,Overcast,0,2013-03-23 05:55:00
2:15 AM,30.0,23.7,77,30.02,10.0,Calm,Calm,-,N/A,,Overcast,0,2013-03-23 06:15:00
2:35 AM,30.9,25.9,82,30.02,10.0,Calm,Calm,-,N/A,,Overcast,0,2013-03-23 06:35:00
2:55 AM,31.8,25.2,76,30.02,10.0,Calm,Calm,-,N/A,,Overcast,0,2013-03-23 06:55:00
3:15 AM,32.0,25.3,76,30.02,10.0,Calm,Calm,-,N/A,,Overcast,0,2013-03-23 07:15:00
3:35 AM,32.4,26.4,79,30.02,10.0,Calm,Calm,-,N/A,,Overcast,0,2013-03-23 07:35:00
4:15 AM,32.4,27.3,82,30.01,10.0,Calm,Calm,-,N/A,,Overcast,0,2013-03-23 08:15:00
4:35 AM,33.1,27.5,80,30.01,10.0,Calm,Calm,-,N/A,,Overcast,0,2013-03-23 08:35:00
4:55 AM,33.4,28.4,82,30.00,10.0,Calm,Calm,-,N/A,,Overcast,0,2013-03-23 08:55:00
5:15 AM,33.3,28.4,82,30.01,10.0,Calm,Calm,-,N/A,,Overcast,0,2013-03-23 09:15:00
5:35 AM,33.8,28.2,80,30.01,10.0,Calm,Calm,-,N/A,,Overcast,0,2013-03-23 09:35:00
5:55 AM,34.2,28.8,81,30.01,10.0,Calm,Calm,-,N/A,,Overcast,0,2013-03-23 09:55:00
6:15 AM,33.8,28.8,82,30.02,10.0,Calm,Calm,-,N/A,,Overcast,0,2013-03-23 10:15:00
6:35 AM,32.9,28.9,85,30.02,10.0,Calm,Calm,-,N/A,,Mostly Cloudy,0,2013-03-23 10:35:00
6:55 AM,33.1,29.1,85,30.03,10.0,Calm,Calm,-,N/A,,Mostly Cloudy,0,2013-03-23 10:55:00
7:15 AM,34.3,29.1,81,30.04,10.0,Calm,Calm,-,N/A,,Overcast,0,2013-03-23 11:15:00
7:35 AM,34.7,29.8,82,30.03,10.0,Calm,Calm,-,N/A,,Overcast,0,2013-03-23 11:35:00
7:55 AM,34.7,29.7,82,30.04,10.0,Calm,Calm,-,N/A,,Overcast,0,2013-03-23 11:55:00
8:15 AM,35.6,30.2,81,30.04,10.0,Calm,Calm,-,N/A,,Overcast,0,2013-03-23 12:15:00
8:35 AM,37.4,29.5,73,30.05,10.0,Calm,Calm,-,N/A,,Overcast,0,2013-03-23 12:35:00
8:55 AM,38.3,29.1,70,30.05,10.0,Calm,Calm,-,N/A,,Overcast,0,2013-03-23 12:55:00
9:15 AM,39.2,29.7,69,30.06,10.0,Calm,Calm,-,N/A,,Overcast,0,2013-03-23 13:15:00
9:35 AM,39.6,28.0,63,30.07,10.0,Calm,Calm,-,N/A,,Overcast,0,2013-03-23 13:35:00
9:55 AM,39.9,27.5,61,30.06,10.0,Calm,Calm,-,N/A,,Overcast,0,2013-03-23 13:55:00
10:15 AM,40.3,29.1,64,30.07,10.0,Calm,Calm,-,N/A,,Overcast,0,2013-03-23 14:15:00
10:35 AM,41.7,28.2,59,30.07,10.0,Calm,Calm,-,N/A,,Overcast,0,2013-03-23 14:35:00
10:55 AM,43.3,27.1,53,30.06,10.0,Calm,Calm,-,N/A,,Overcast,0,2013-03-23 14:55:00
11:15 AM,45.9,23.5,41,30.05,10.0,Calm,Calm,-,N/A,,Overcast,0,2013-03-23 15:15:00
11:35 AM,46.6,21.4,37,30.05,10.0,Calm,Calm,-,N/A,,Overcast,0,2013-03-23 15:35:00
11:55 AM,47.7,22.8,38,30.05,10.0,Calm,Calm,-,N/A,,Overcast,0,2013-03-23 15:55:00
12:15 PM,48.4,23.2,37,30.04,10.0,Calm,Calm,-,N/A,,Overcast,0,2013-03-23 16:15:00
12:35 PM,49.6,22.8,35,30.04,10.0,ESE,3.5,-,N/A,,Overcast,110,2013-03-23 16:35:00
12:55 PM,50.2,21.9,33,30.03,10.0,Calm,Calm,-,N/A,,Overcast,0,2013-03-23 16:55:00
1:15 PM,54.0,25.2,33,30.02,10.0,Calm,Calm,-,N/A,,Overcast,0,2013-03-23 17:15:00
1:35 PM,53.8,28.0,37,30.02,10.0,South,4.6,-,N/A,,Overcast,190,2013-03-23 17:35:00
1:55 PM,53.4,32.0,44,30.02,10.0,SSW,6.9,-,N/A,,Overcast,210,2013-03-23 17:55:00
2:15 PM,55.2,33.6,44,30.00,10.0,SW,3.5,-,N/A,,Overcast,220,2013-03-23 18:15:00
2:35 PM,58.1,33.6,40,29.99,10.0,South,6.9,-,N/A,,Mostly Cloudy,190,2013-03-23 18:35:00
2:55 PM,55.9,33.1,42,29.98,10.0,SSW,4.6,-,N/A,,Overcast,200,2013-03-23 18:55:00
3:15 PM,54.5,31.8,42,29.97,10.0,Calm,Calm,-,N/A,,Overcast,0,2013-03-23 19:15:00
3:35 PM,54.7,32.0,42,29.96,10.0,Calm,Calm,-,N/A,,Overcast,0,2013-03-23 19:35:00
3:55 PM,57.0,32.9,40,29.96,10.0,Calm,Calm,-,N/A,,Overcast,0,2013-03-23 19:55:00
4:15 PM,56.5,33.1,41,29.96,10.0,NW,3.5,-,N/A,,Overcast,310,2013-03-23 20:15:00
4:35 PM,58.3,33.4,39,29.95,10.0,NNE,3.5,-,N/A,,Mostly Cloudy,30,2013-03-23 20:35:00
4:55 PM,56.7,33.3,41,29.94,10.0,Calm,Calm,-,N/A,,Scattered Clouds,0,2013-03-23 20:55:00
5:15 PM,57.4,33.8,41,29.93,10.0,SSE,3.5,-,N/A,,Scattered Clouds,160,2013-03-23 21:15:00
5:35 PM,58.1,33.1,39,29.93,10.0,SSW,3.5,-,N/A,,Mostly Cloudy,200,2013-03-23 21:35:00
5:55 PM,57.6,33.4,40,29.93,10.0,Calm,Calm,-,N/A,,Overcast,0,2013-03-23 21:55:00
6:15 PM,57.9,33.3,39,29.92,10.0,NNW,3.5,-,N/A,,Overcast,340,2013-03-23 22:15:00
6:35 PM,57.4,33.8,41,29.92,10.0,Calm,Calm,-,N/A,,Scattered Clouds,0,2013-03-23 22:35:00
6:55 PM,56.1,34.0,43,29.92,10.0,Calm,Calm,-,N/A,,Clear,0,2013-03-23 22:55:00
7:15 PM,53.8,35.6,50,29.93,10.0,Calm,Calm,-,N/A,,Clear,0,2013-03-23 23:15:00
7:35 PM,50.4,36.0,58,29.93,10.0,Calm,Calm,-,N/A,,Clear,0,2013-03-23 23:35:00
7:55 PM,46.9,37.0,68,29.93,10.0,Calm,Calm,-,N/A,,Clear,0,2013-03-23 23:55:00
8:15 PM,45.9,36.3,69,29.93,10.0,Calm,Calm,-,N/A,,Clear,0,2013-03-24 00:15:00
8:35 PM,43.9,35.8,73,29.94,10.0,Calm,Calm,-,N/A,,Clear,0,2013-03-24 00:35:00
8:55 PM,43.9,36.1,74,29.95,10.0,Calm,Calm,-,N/A,,Clear,0,2013-03-24 00:55:00
9:15 PM,41.7,35.8,79,29.96,10.0,Calm,Calm,-,N/A,,Clear,0,2013-03-24 01:15:00
9:35 PM,40.1,35.2,83,29.96,10.0,Calm,Calm,-,N/A,,Clear,0,2013-03-24 01:35:00
9:55 PM,40.5,34.7,80,29.96,10.0,Calm,Calm,-,N/A,,Clear,0,2013-03-24 01:55:00
10:15 PM,38.3,33.8,84,29.98,10.0,Calm,Calm,-,N/A,,Clear,0,2013-03-24 02:15:00
10:35 PM,38.3,34.2,85,29.96,10.0,Calm,Calm,-,N/A,,Clear,0,2013-03-24 02:35:00
10:55 PM,37.8,34.0,86,29.96,10.0,Calm,Calm,-,N/A,,Clear,0,2013-03-24 02:55:00
11:15 PM,37.0,34.2,89,29.94,10.0,Calm,Calm,-,N/A,,Clear,0,2013-03-24 03:15:00
11:35 PM,36.5,33.4,89,29.93,10.0,Calm,Calm,-,N/A,,Clear,0,2013-03-24 03:35:00
11:55 PM,35.8,33.1,90,29.92,10.0,Calm,Calm,-,N/A,,Clear,0,2013-03-24 03:55:00